sensor_id;sensor_type;location;lat;lon;timestamp;temperature;humidity
40289;DHT22;28991;52.028;5.526;2024-02-28T00:01:16;17.70;49.50
40289;DHT22;28991;52.028;5.526;2024-02-28T00:03:42;17.80;49.50
40289;DHT22;28991;52.028;5.526;2024-02-28T00:06:07;18.00;49.60
40289;DHT22;28991;52.028;5.526;2024-02-28T00:08:33;17.90;49.60
40289;DHT22;28991;52.028;5.526;2024-02-28T00:10:58;17.90;49.60
40289;DHT22;28991;52.028;5.526;2024-02-28T00:13:24;17.80;49.60
40289;DHT22;28991;52.028;5.526;2024-02-28T00:15:50;18.60;50.00
40289;DHT22;28991;52.028;5.526;2024-02-28T00:18:16;17.80;49.60
40289;DHT22;28991;52.028;5.526;2024-02-28T00:20:44;17.80;49.60
40289;DHT22;28991;52.028;5.526;2024-02-28T00:23:09;17.70;49.50
40289;DHT22;28991;52.028;5.526;2024-02-28T00:25:35;17.80;49.60
40289;DHT22;28991;52.028;5.526;2024-02-28T00:28:01;17.60;49.50
40289;DHT22;28991;52.028;5.526;2024-02-28T00:30:26;17.80;49.60
40289;DHT22;28991;52.028;5.526;2024-02-28T00:32:54;18.30;49.90
40289;DHT22;28991;52.028;5.526;2024-02-28T00:35:19;18.80;50.20
40289;DHT22;28991;52.028;5.526;2024-02-28T00:37:45;17.80;49.60
40289;DHT22;28991;52.028;5.526;2024-02-28T00:40:11;17.80;49.60
40289;DHT22;28991;52.028;5.526;2024-02-28T00:42:37;17.70;49.60
40289;DHT22;28991;52.028;5.526;2024-02-28T00:45:03;18.00;49.80
40289;DHT22;28991;52.028;5.526;2024-02-28T00:47:28;17.80;49.70
40289;DHT22;28991;52.028;5.526;2024-02-28T00:49:54;17.70;49.60
40289;DHT22;28991;52.028;5.526;2024-02-28T00:52:20;17.70;49.60
40289;DHT22;28991;52.028;5.526;2024-02-28T00:54:45;17.70;49.60
40289;DHT22;28991;52.028;5.526;2024-02-28T00:57:11;17.80;49.70
40289;DHT22;28991;52.028;5.526;2024-02-28T00:59:36;17.80;49.70
40289;DHT22;28991;52.028;5.526;2024-02-28T01:02:02;17.80;49.70
40289;DHT22;28991;52.028;5.526;2024-02-28T01:04:28;17.70;49.70
40289;DHT22;28991;52.028;5.526;2024-02-28T01:06:54;17.80;49.70
40289;DHT22;28991;52.028;5.526;2024-02-28T01:09:21;17.80;49.80
40289;DHT22;28991;52.028;5.526;2024-02-28T01:11:46;17.80;49.80
40289;DHT22;28991;52.028;5.526;2024-02-28T01:14:12;17.70;49.70
40289;DHT22;28991;52.028;5.526;2024-02-28T01:16:38;17.80;49.80
40289;DHT22;28991;52.028;5.526;2024-02-28T01:19:03;18.30;50.00
40289;DHT22;28991;52.028;5.526;2024-02-28T01:21:29;18.00;49.90
40289;DHT22;28991;52.028;5.526;2024-02-28T01:23:54;17.60;49.60
40289;DHT22;28991;52.028;5.526;2024-02-28T01:26:20;17.90;49.80
40289;DHT22;28991;52.028;5.526;2024-02-28T01:28:47;18.10;50.00
40289;DHT22;28991;52.028;5.526;2024-02-28T01:31:14;18.10;50.00
40289;DHT22;28991;52.028;5.526;2024-02-28T01:33:39;17.70;49.70
40289;DHT22;28991;52.028;5.526;2024-02-28T01:36:08;17.80;49.80
40289;DHT22;28991;52.028;5.526;2024-02-28T01:38:34;17.80;49.80
40289;DHT22;28991;52.028;5.526;2024-02-28T01:41:00;17.80;49.80
40289;DHT22;28991;52.028;5.526;2024-02-28T01:43:25;17.90;49.90
40289;DHT22;28991;52.028;5.526;2024-02-28T01:45:51;17.80;49.80
40289;DHT22;28991;52.028;5.526;2024-02-28T01:48:17;17.70;49.80
40289;DHT22;28991;52.028;5.526;2024-02-28T01:50:42;17.70;49.80
40289;DHT22;28991;52.028;5.526;2024-02-28T01:53:09;17.70;49.80
40289;DHT22;28991;52.028;5.526;2024-02-28T01:55:37;17.90;50.00
40289;DHT22;28991;52.028;5.526;2024-02-28T01:58:04;17.70;49.80
40289;DHT22;28991;52.028;5.526;2024-02-28T02:00:33;17.90;49.90
40289;DHT22;28991;52.028;5.526;2024-02-28T02:03:00;18.20;50.10
40289;DHT22;28991;52.028;5.526;2024-02-28T02:05:26;17.70;49.80
40289;DHT22;28991;52.028;5.526;2024-02-28T02:07:52;18.50;50.20
40289;DHT22;28991;52.028;5.526;2024-02-28T02:10:18;17.70;49.80
40289;DHT22;28991;52.028;5.526;2024-02-28T02:12:44;17.70;49.90
40289;DHT22;28991;52.028;5.526;2024-02-28T02:15:09;17.70;49.90
40289;DHT22;28991;52.028;5.526;2024-02-28T02:17:35;17.70;49.80
40289;DHT22;28991;52.028;5.526;2024-02-28T02:20:01;17.70;49.90
40289;DHT22;28991;52.028;5.526;2024-02-28T02:22:38;17.70;49.90
40289;DHT22;28991;52.028;5.526;2024-02-28T02:25:04;17.60;49.80
40289;DHT22;28991;52.028;5.526;2024-02-28T02:27:30;17.70;49.90
40289;DHT22;28991;52.028;5.526;2024-02-28T02:29:55;17.60;49.80
40289;DHT22;28991;52.028;5.526;2024-02-28T02:32:21;17.70;49.90
40289;DHT22;28991;52.028;5.526;2024-02-28T02:34:46;18.50;50.30
40289;DHT22;28991;52.028;5.526;2024-02-28T02:37:12;17.70;49.90
40289;DHT22;28991;52.028;5.526;2024-02-28T02:39:38;17.70;49.40
40289;DHT22;28991;52.028;5.526;2024-02-28T02:42:03;17.60;49.80
40289;DHT22;28991;52.028;5.526;2024-02-28T02:44:29;17.60;49.90
40289;DHT22;28991;52.028;5.526;2024-02-28T02:46:54;17.70;49.90
40289;DHT22;28991;52.028;5.526;2024-02-28T02:49:20;17.70;49.90
40289;DHT22;28991;52.028;5.526;2024-02-28T02:51:45;17.60;49.90
40289;DHT22;28991;52.028;5.526;2024-02-28T02:54:11;17.60;49.90
40289;DHT22;28991;52.028;5.526;2024-02-28T02:56:37;17.70;50.00
40289;DHT22;28991;52.028;5.526;2024-02-28T02:59:02;17.70;50.00
40289;DHT22;28991;52.028;5.526;2024-02-28T03:01:28;17.70;49.90
40289;DHT22;28991;52.028;5.526;2024-02-28T03:03:54;17.70;50.00
40289;DHT22;28991;52.028;5.526;2024-02-28T03:06:19;17.60;49.90
40289;DHT22;28991;52.028;5.526;2024-02-28T03:08:46;17.70;50.00
40289;DHT22;28991;52.028;5.526;2024-02-28T03:11:11;17.70;50.00
40289;DHT22;28991;52.028;5.526;2024-02-28T03:13:37;17.60;50.00
40289;DHT22;28991;52.028;5.526;2024-02-28T03:16:06;17.70;50.10
40289;DHT22;28991;52.028;5.526;2024-02-28T03:18:31;17.70;50.00
40289;DHT22;28991;52.028;5.526;2024-02-28T03:20:57;17.60;49.90
40289;DHT22;28991;52.028;5.526;2024-02-28T03:23:23;17.60;49.90
40289;DHT22;28991;52.028;5.526;2024-02-28T03:25:48;17.60;49.90
40289;DHT22;28991;52.028;5.526;2024-02-28T03:28:14;17.70;50.00
40289;DHT22;28991;52.028;5.526;2024-02-28T03:30:39;17.60;49.90
40289;DHT22;28991;52.028;5.526;2024-02-28T03:33:05;17.80;50.10
40289;DHT22;28991;52.028;5.526;2024-02-28T03:35:30;17.60;49.90
40289;DHT22;28991;52.028;5.526;2024-02-28T03:37:56;17.50;49.90
40289;DHT22;28991;52.028;5.526;2024-02-28T03:40:21;17.60;50.00
40289;DHT22;28991;52.028;5.526;2024-02-28T03:42:47;17.60;50.00
40289;DHT22;28991;52.028;5.526;2024-02-28T03:45:12;17.60;50.00
40289;DHT22;28991;52.028;5.526;2024-02-28T03:47:38;17.60;49.90
40289;DHT22;28991;52.028;5.526;2024-02-28T03:50:04;19.20;50.80
40289;DHT22;28991;52.028;5.526;2024-02-28T03:52:29;17.60;50.00
40289;DHT22;28991;52.028;5.526;2024-02-28T03:54:56;17.80;50.10
40289;DHT22;28991;52.028;5.526;2024-02-28T03:57:22;17.60;50.00
40289;DHT22;28991;52.028;5.526;2024-02-28T03:59:48;17.50;49.90
40289;DHT22;28991;52.028;5.526;2024-02-28T04:02:13;17.70;50.10
40289;DHT22;28991;52.028;5.526;2024-02-28T04:04:39;17.60;50.00
40289;DHT22;28991;52.028;5.526;2024-02-28T04:07:05;17.70;50.00
40289;DHT22;28991;52.028;5.526;2024-02-28T04:09:30;17.60;50.00
40289;DHT22;28991;52.028;5.526;2024-02-28T04:11:56;17.60;50.00
40289;DHT22;28991;52.028;5.526;2024-02-28T04:14:21;17.60;50.10
40289;DHT22;28991;52.028;5.526;2024-02-28T04:16:47;17.60;50.00
40289;DHT22;28991;52.028;5.526;2024-02-28T04:19:15;17.60;50.00
40289;DHT22;28991;52.028;5.526;2024-02-28T04:21:41;18.20;50.30
40289;DHT22;28991;52.028;5.526;2024-02-28T04:24:08;17.10;49.70
40289;DHT22;28991;52.028;5.526;2024-02-28T04:26:35;17.60;50.00
40289;DHT22;28991;52.028;5.526;2024-02-28T04:29:01;17.50;49.90
40289;DHT22;28991;52.028;5.526;2024-02-28T04:31:30;17.50;50.00
40289;DHT22;28991;52.028;5.526;2024-02-28T04:33:56;17.50;50.00
40289;DHT22;28991;52.028;5.526;2024-02-28T04:36:21;17.60;50.10
40289;DHT22;28991;52.028;5.526;2024-02-28T04:38:47;17.60;50.60
40289;DHT22;28991;52.028;5.526;2024-02-28T04:41:12;17.60;50.00
40289;DHT22;28991;52.028;5.526;2024-02-28T04:43:38;17.60;50.00
40289;DHT22;28991;52.028;5.526;2024-02-28T04:46:03;17.50;50.00
40289;DHT22;28991;52.028;5.526;2024-02-28T04:48:29;17.60;50.00
40289;DHT22;28991;52.028;5.526;2024-02-28T04:50:55;17.50;50.00
40289;DHT22;28991;52.028;5.526;2024-02-28T04:53:20;17.60;50.00
40289;DHT22;28991;52.028;5.526;2024-02-28T04:55:46;17.50;49.90
40289;DHT22;28991;52.028;5.526;2024-02-28T04:58:11;17.70;50.10
40289;DHT22;28991;52.028;5.526;2024-02-28T05:00:37;18.50;50.50
40289;DHT22;28991;52.028;5.526;2024-02-28T05:03:02;17.60;50.00
40289;DHT22;28991;52.028;5.526;2024-02-28T05:05:28;18.00;50.30
40289;DHT22;28991;52.028;5.526;2024-02-28T05:07:54;17.50;49.90
40289;DHT22;28991;52.028;5.526;2024-02-28T05:10:19;17.60;50.00
40289;DHT22;28991;52.028;5.526;2024-02-28T05:12:45;17.60;50.00
40289;DHT22;28991;52.028;5.526;2024-02-28T05:15:10;17.60;50.00
40289;DHT22;28991;52.028;5.526;2024-02-28T05:17:36;17.60;50.00
40289;DHT22;28991;52.028;5.526;2024-02-28T05:20:01;17.50;49.90
40289;DHT22;28991;52.028;5.526;2024-02-28T05:22:27;17.60;50.00
40289;DHT22;28991;52.028;5.526;2024-02-28T05:24:52;17.80;50.10
40289;DHT22;28991;52.028;5.526;2024-02-28T05:27:19;17.60;50.00
40289;DHT22;28991;52.028;5.526;2024-02-28T05:29:45;17.60;50.00
40289;DHT22;28991;52.028;5.526;2024-02-28T05:32:10;17.30;49.90
40289;DHT22;28991;52.028;5.526;2024-02-28T05:34:36;17.50;50.50
40289;DHT22;28991;52.028;5.526;2024-02-28T05:37:02;18.20;50.30
40289;DHT22;28991;52.028;5.526;2024-02-28T05:39:28;17.50;50.00
40289;DHT22;28991;52.028;5.526;2024-02-28T05:41:54;17.60;50.00
40289;DHT22;28991;52.028;5.526;2024-02-28T05:44:20;18.10;50.30
40289;DHT22;28991;52.028;5.526;2024-02-28T05:46:45;17.90;50.10
40289;DHT22;28991;52.028;5.526;2024-02-28T05:49:11;17.80;50.10
40289;DHT22;28991;52.028;5.526;2024-02-28T05:51:37;18.40;50.40
40289;DHT22;28991;52.028;5.526;2024-02-28T05:54:03;17.60;50.00
40289;DHT22;28991;52.028;5.526;2024-02-28T05:56:28;17.50;49.90
40289;DHT22;28991;52.028;5.526;2024-02-28T05:58:55;19.30;50.90
40289;DHT22;28991;52.028;5.526;2024-02-28T06:01:21;17.60;50.00
40289;DHT22;28991;52.028;5.526;2024-02-28T06:03:47;17.50;50.00
40289;DHT22;28991;52.028;5.526;2024-02-28T06:06:13;17.50;49.90
40289;DHT22;28991;52.028;5.526;2024-02-28T06:08:39;17.70;50.10
40289;DHT22;28991;52.028;5.526;2024-02-28T06:11:06;17.60;50.00
40289;DHT22;28991;52.028;5.526;2024-02-28T06:13:31;17.50;49.80
40289;DHT22;28991;52.028;5.526;2024-02-28T06:15:57;17.50;48.00
40289;DHT22;28991;52.028;5.526;2024-02-28T06:18:26;17.70;47.40
40289;DHT22;28991;52.028;5.526;2024-02-28T06:20:56;17.70;46.30
40289;DHT22;28991;52.028;5.526;2024-02-28T06:23:22;17.70;45.40
40289;DHT22;28991;52.028;5.526;2024-02-28T06:25:49;17.70;44.90
40289;DHT22;28991;52.028;5.526;2024-02-28T06:28:14;17.90;44.80
40289;DHT22;28991;52.028;5.526;2024-02-28T06:30:40;18.10;45.10
40289;DHT22;28991;52.028;5.526;2024-02-28T06:33:06;18.00;45.10
40289;DHT22;28991;52.028;5.526;2024-02-28T06:35:31;18.00;45.40
40289;DHT22;28991;52.028;5.526;2024-02-28T06:37:57;18.00;45.60
40289;DHT22;28991;52.028;5.526;2024-02-28T06:40:25;18.40;46.80
40289;DHT22;28991;52.028;5.526;2024-02-28T06:42:51;19.00;46.50
40289;DHT22;28991;52.028;5.526;2024-02-28T06:45:16;18.10;45.40
40289;DHT22;28991;52.028;5.526;2024-02-28T06:47:42;18.10;45.60
40289;DHT22;28991;52.028;5.526;2024-02-28T06:50:10;18.40;46.00
40289;DHT22;28991;52.028;5.526;2024-02-28T06:52:36;18.30;45.80
40289;DHT22;28991;52.028;5.526;2024-02-28T06:55:01;18.10;45.60
40289;DHT22;28991;52.028;5.526;2024-02-28T06:57:38;18.20;45.70
40289;DHT22;28991;52.028;5.526;2024-02-28T07:00:06;18.20;45.80
40289;DHT22;28991;52.028;5.526;2024-02-28T07:02:34;18.30;45.70
40289;DHT22;28991;52.028;5.526;2024-02-28T07:05:00;18.20;44.90
40289;DHT22;28991;52.028;5.526;2024-02-28T07:07:25;18.00;45.30
40289;DHT22;28991;52.028;5.526;2024-02-28T07:09:51;18.20;45.60
40289;DHT22;28991;52.028;5.526;2024-02-28T07:12:16;18.30;45.60
40289;DHT22;28991;52.028;5.526;2024-02-28T07:14:42;18.20;45.40
40289;DHT22;28991;52.028;5.526;2024-02-28T07:17:08;18.40;45.60
40289;DHT22;28991;52.028;5.526;2024-02-28T07:19:33;18.30;45.50
40289;DHT22;28991;52.028;5.526;2024-02-28T07:21:59;17.80;45.00
40289;DHT22;28991;52.028;5.526;2024-02-28T07:24:24;18.30;45.40
40289;DHT22;28991;52.028;5.526;2024-02-28T07:26:50;18.30;45.30
40289;DHT22;28991;52.028;5.526;2024-02-28T07:29:16;18.40;45.40
40289;DHT22;28991;52.028;5.526;2024-02-28T07:31:42;18.30;45.20
40289;DHT22;28991;52.028;5.526;2024-02-28T07:34:07;18.30;45.30
40289;DHT22;28991;52.028;5.526;2024-02-28T07:36:33;18.20;45.40
40289;DHT22;28991;52.028;5.526;2024-02-28T07:38:59;19.10;45.40
40289;DHT22;28991;52.028;5.526;2024-02-28T07:41:25;18.20;45.80
40289;DHT22;28991;52.028;5.526;2024-02-28T07:43:50;18.40;45.50
40289;DHT22;28991;52.028;5.526;2024-02-28T07:46:16;18.40;45.20
40289;DHT22;28991;52.028;5.526;2024-02-28T07:48:42;18.30;44.60
40289;DHT22;28991;52.028;5.526;2024-02-28T07:51:08;18.30;44.80
40289;DHT22;28991;52.028;5.526;2024-02-28T07:53:34;18.30;44.50
40289;DHT22;28991;52.028;5.526;2024-02-28T07:55:59;18.30;44.70
40289;DHT22;28991;52.028;5.526;2024-02-28T07:58:25;18.40;44.50
40289;DHT22;28991;52.028;5.526;2024-02-28T08:00:51;18.40;44.30
40289;DHT22;28991;52.028;5.526;2024-02-28T08:03:20;18.40;44.90
40289;DHT22;28991;52.028;5.526;2024-02-28T08:05:46;18.50;45.20
40289;DHT22;28991;52.028;5.526;2024-02-28T08:08:12;18.50;45.20
40289;DHT22;28991;52.028;5.526;2024-02-28T08:10:38;18.50;45.30
40289;DHT22;28991;52.028;5.526;2024-02-28T08:13:06;18.40;45.40
40289;DHT22;28991;52.028;5.526;2024-02-28T08:15:33;18.60;45.50
40289;DHT22;28991;52.028;5.526;2024-02-28T08:17:58;18.50;45.50
40289;DHT22;28991;52.028;5.526;2024-02-28T08:20:24;18.40;45.10
40289;DHT22;28991;52.028;5.526;2024-02-28T08:22:50;18.40;45.10
40289;DHT22;28991;52.028;5.526;2024-02-28T08:25:18;18.50;45.30
40289;DHT22;28991;52.028;5.526;2024-02-28T08:27:44;18.50;45.30
40289;DHT22;28991;52.028;5.526;2024-02-28T08:30:09;18.60;45.30
40289;DHT22;28991;52.028;5.526;2024-02-28T08:32:35;18.60;45.10
40289;DHT22;28991;52.028;5.526;2024-02-28T08:35:01;18.60;45.20
40289;DHT22;28991;52.028;5.526;2024-02-28T08:37:26;18.60;45.00
40289;DHT22;28991;52.028;5.526;2024-02-28T08:39:54;18.60;45.20
40289;DHT22;28991;52.028;5.526;2024-02-28T08:42:25;18.60;44.60
40289;DHT22;28991;52.028;5.526;2024-02-28T08:44:52;18.60;44.10
40289;DHT22;28991;52.028;5.526;2024-02-28T08:47:17;18.90;44.30
40289;DHT22;28991;52.028;5.526;2024-02-28T08:49:44;18.70;44.50
40289;DHT22;28991;52.028;5.526;2024-02-28T08:52:10;18.70;44.10
40289;DHT22;28991;52.028;5.526;2024-02-28T08:54:35;18.70;44.40
40289;DHT22;28991;52.028;5.526;2024-02-28T08:57:01;18.80;44.00
40289;DHT22;28991;52.028;5.526;2024-02-28T08:59:26;19.10;44.20
40289;DHT22;28991;52.028;5.526;2024-02-28T09:01:52;18.90;44.10
40289;DHT22;28991;52.028;5.526;2024-02-28T09:04:17;18.90;44.20
40289;DHT22;28991;52.028;5.526;2024-02-28T09:06:43;19.00;44.40
40289;DHT22;28991;52.028;5.526;2024-02-28T09:09:09;18.90;44.40
40289;DHT22;28991;52.028;5.526;2024-02-28T09:11:35;19.10;44.60
40289;DHT22;28991;52.028;5.526;2024-02-28T09:14:00;18.90;44.40
40289;DHT22;28991;52.028;5.526;2024-02-28T09:16:26;19.00;44.10
40289;DHT22;28991;52.028;5.526;2024-02-28T09:18:51;19.00;44.00
40289;DHT22;28991;52.028;5.526;2024-02-28T09:21:17;19.10;44.10
40289;DHT22;28991;52.028;5.526;2024-02-28T09:23:42;19.20;44.50
40289;DHT22;28991;52.028;5.526;2024-02-28T09:26:08;19.30;44.40
40289;DHT22;28991;52.028;5.526;2024-02-28T09:28:34;19.10;43.70
40289;DHT22;28991;52.028;5.526;2024-02-28T09:30:59;19.20;44.00
40289;DHT22;28991;52.028;5.526;2024-02-28T09:33:25;19.20;44.40
40289;DHT22;28991;52.028;5.526;2024-02-28T09:35:51;19.20;44.60
40289;DHT22;28991;52.028;5.526;2024-02-28T09:38:16;19.20;44.50
40289;DHT22;28991;52.028;5.526;2024-02-28T09:40:46;19.10;44.50
40289;DHT22;28991;52.028;5.526;2024-02-28T09:43:18;19.20;44.40
40289;DHT22;28991;52.028;5.526;2024-02-28T09:45:44;19.10;44.40
40289;DHT22;28991;52.028;5.526;2024-02-28T09:48:10;19.10;44.30
40289;DHT22;28991;52.028;5.526;2024-02-28T09:50:37;19.10;44.30
40289;DHT22;28991;52.028;5.526;2024-02-28T09:53:04;19.30;44.50
40289;DHT22;28991;52.028;5.526;2024-02-28T09:55:29;19.10;44.30
40289;DHT22;28991;52.028;5.526;2024-02-28T09:57:58;19.20;44.60
40289;DHT22;28991;52.028;5.526;2024-02-28T10:00:25;19.20;44.60
40289;DHT22;28991;52.028;5.526;2024-02-28T10:02:52;19.10;44.60
40289;DHT22;28991;52.028;5.526;2024-02-28T10:05:19;19.10;45.10
40289;DHT22;28991;52.028;5.526;2024-02-28T10:07:46;19.10;44.70
40289;DHT22;28991;52.028;5.526;2024-02-28T10:10:12;19.20;44.90
40289;DHT22;28991;52.028;5.526;2024-02-28T10:12:41;19.20;45.00
40289;DHT22;28991;52.028;5.526;2024-02-28T10:15:09;19.20;45.10
40289;DHT22;28991;52.028;5.526;2024-02-28T10:17:34;19.20;45.00
40289;DHT22;28991;52.028;5.526;2024-02-28T10:20:00;19.20;45.00
40289;DHT22;28991;52.028;5.526;2024-02-28T10:22:26;19.30;45.10
40289;DHT22;28991;52.028;5.526;2024-02-28T10:24:57;19.30;45.10
40289;DHT22;28991;52.028;5.526;2024-02-28T10:27:24;19.40;45.50
40289;DHT22;28991;52.028;5.526;2024-02-28T10:29:49;19.30;44.80
40289;DHT22;28991;52.028;5.526;2024-02-28T10:32:15;19.40;44.70
40289;DHT22;28991;52.028;5.526;2024-02-28T10:34:41;19.50;44.70
40289;DHT22;28991;52.028;5.526;2024-02-28T10:37:07;19.40;44.80
40289;DHT22;28991;52.028;5.526;2024-02-28T10:39:34;19.40;44.60
40289;DHT22;28991;52.028;5.526;2024-02-28T10:42:01;19.50;44.90
40289;DHT22;28991;52.028;5.526;2024-02-28T10:44:28;19.50;44.90
40289;DHT22;28991;52.028;5.526;2024-02-28T10:46:55;19.60;45.10
40289;DHT22;28991;52.028;5.526;2024-02-28T10:49:20;19.60;45.30
40289;DHT22;28991;52.028;5.526;2024-02-28T10:51:48;19.70;45.50
40289;DHT22;28991;52.028;5.526;2024-02-28T10:54:15;19.60;45.10
40289;DHT22;28991;52.028;5.526;2024-02-28T10:56:41;19.80;45.90
40289;DHT22;28991;52.028;5.526;2024-02-28T10:59:09;19.80;45.40
40289;DHT22;28991;52.028;5.526;2024-02-28T11:01:36;19.80;45.40
40289;DHT22;28991;52.028;5.526;2024-02-28T11:04:03;19.80;45.40
40289;DHT22;28991;52.028;5.526;2024-02-28T11:06:29;19.90;45.50
40289;DHT22;28991;52.028;5.526;2024-02-28T11:08:55;20.00;45.50
40289;DHT22;28991;52.028;5.526;2024-02-28T11:11:22;19.90;45.30
40289;DHT22;28991;52.028;5.526;2024-02-28T11:13:58;20.80;45.80
40289;DHT22;28991;52.028;5.526;2024-02-28T11:16:32;20.00;45.40
40289;DHT22;28991;52.028;5.526;2024-02-28T11:18:59;20.00;45.40
40289;DHT22;28991;52.028;5.526;2024-02-28T11:21:28;19.90;45.40
40289;DHT22;28991;52.028;5.526;2024-02-28T11:23:58;19.90;45.20
40289;DHT22;28991;52.028;5.526;2024-02-28T11:26:25;20.00;45.50
40289;DHT22;28991;52.028;5.526;2024-02-28T11:28:51;19.90;45.40
40289;DHT22;28991;52.028;5.526;2024-02-28T11:31:17;19.90;45.40
40289;DHT22;28991;52.028;5.526;2024-02-28T11:33:44;19.90;45.60
40289;DHT22;28991;52.028;5.526;2024-02-28T11:36:11;19.90;45.40
40289;DHT22;28991;52.028;5.526;2024-02-28T11:38:38;19.90;45.50
40289;DHT22;28991;52.028;5.526;2024-02-28T11:41:04;19.90;45.40
40289;DHT22;28991;52.028;5.526;2024-02-28T11:43:34;19.80;45.50
40289;DHT22;28991;52.028;5.526;2024-02-28T11:46:08;19.90;45.50
40289;DHT22;28991;52.028;5.526;2024-02-28T11:48:35;19.80;45.40
40289;DHT22;28991;52.028;5.526;2024-02-28T11:51:00;19.80;45.40
40289;DHT22;28991;52.028;5.526;2024-02-28T11:53:26;19.80;45.50
40289;DHT22;28991;52.028;5.526;2024-02-28T11:55:55;19.80;45.50
40289;DHT22;28991;52.028;5.526;2024-02-28T11:58:23;19.80;45.50
40289;DHT22;28991;52.028;5.526;2024-02-28T12:00:49;19.70;45.50
40289;DHT22;28991;52.028;5.526;2024-02-28T12:03:22;19.70;45.40
40289;DHT22;28991;52.028;5.526;2024-02-28T12:05:48;19.80;45.60
40289;DHT22;28991;52.028;5.526;2024-02-28T12:08:15;19.70;45.60
40289;DHT22;28991;52.028;5.526;2024-02-28T12:10:40;19.60;45.50
40289;DHT22;28991;52.028;5.526;2024-02-28T12:13:06;19.70;45.70
40289;DHT22;28991;52.028;5.526;2024-02-28T12:15:33;19.80;45.90
40289;DHT22;28991;52.028;5.526;2024-02-28T12:17:58;19.50;45.70
40289;DHT22;28991;52.028;5.526;2024-02-28T12:20:24;19.70;45.80
40289;DHT22;28991;52.028;5.526;2024-02-28T12:22:49;19.80;45.80
40289;DHT22;28991;52.028;5.526;2024-02-28T12:25:15;19.90;45.90
40289;DHT22;28991;52.028;5.526;2024-02-28T12:27:41;19.90;45.90
40289;DHT22;28991;52.028;5.526;2024-02-28T12:30:07;19.70;45.90
40289;DHT22;28991;52.028;5.526;2024-02-28T12:32:33;19.70;45.90
40289;DHT22;28991;52.028;5.526;2024-02-28T12:34:58;19.70;45.90
40289;DHT22;28991;52.028;5.526;2024-02-28T12:37:24;19.70;45.90
40289;DHT22;28991;52.028;5.526;2024-02-28T12:39:50;19.70;45.90
40289;DHT22;28991;52.028;5.526;2024-02-28T12:42:16;19.70;45.90
40289;DHT22;28991;52.028;5.526;2024-02-28T12:44:42;19.80;46.00
40289;DHT22;28991;52.028;5.526;2024-02-28T12:47:11;19.70;45.90
40289;DHT22;28991;52.028;5.526;2024-02-28T12:49:37;19.70;46.20
40289;DHT22;28991;52.028;5.526;2024-02-28T12:52:03;19.70;46.30
40289;DHT22;28991;52.028;5.526;2024-02-28T12:54:30;19.70;46.30
40289;DHT22;28991;52.028;5.526;2024-02-28T12:56:55;18.70;45.70
40289;DHT22;28991;52.028;5.526;2024-02-28T12:59:21;19.60;46.10
40289;DHT22;28991;52.028;5.526;2024-02-28T13:01:47;19.60;46.10
40289;DHT22;28991;52.028;5.526;2024-02-28T13:04:13;19.80;46.20
40289;DHT22;28991;52.028;5.526;2024-02-28T13:06:41;19.80;46.20
40289;DHT22;28991;52.028;5.526;2024-02-28T13:09:07;19.80;46.10
40289;DHT22;28991;52.028;5.526;2024-02-28T13:11:38;19.80;46.00
40289;DHT22;28991;52.028;5.526;2024-02-28T13:14:03;19.70;46.00
40289;DHT22;28991;52.028;5.526;2024-02-28T13:16:30;19.80;46.00
40289;DHT22;28991;52.028;5.526;2024-02-28T13:18:55;19.80;46.10
40289;DHT22;28991;52.028;5.526;2024-02-28T13:21:21;19.80;46.20
40289;DHT22;28991;52.028;5.526;2024-02-28T13:23:47;19.90;46.20
40289;DHT22;28991;52.028;5.526;2024-02-28T13:26:12;19.80;46.00
40289;DHT22;28991;52.028;5.526;2024-02-28T13:28:44;19.80;46.00
40289;DHT22;28991;52.028;5.526;2024-02-28T13:31:10;19.80;46.00
40289;DHT22;28991;52.028;5.526;2024-02-28T13:33:35;20.00;46.10
40289;DHT22;28991;52.028;5.526;2024-02-28T13:36:03;19.80;45.90
40289;DHT22;28991;52.028;5.526;2024-02-28T13:38:28;19.80;45.80
40289;DHT22;28991;52.028;5.526;2024-02-28T13:40:54;19.70;45.80
40289;DHT22;28991;52.028;5.526;2024-02-28T13:43:20;20.20;46.10
40289;DHT22;28991;52.028;5.526;2024-02-28T13:45:49;20.10;45.90
40289;DHT22;28991;52.028;5.526;2024-02-28T13:48:21;20.20;46.00
40289;DHT22;28991;52.028;5.526;2024-02-28T13:50:48;20.10;46.00
40289;DHT22;28991;52.028;5.526;2024-02-28T13:53:14;19.60;45.70
40289;DHT22;28991;52.028;5.526;2024-02-28T13:55:43;19.70;45.80
40289;DHT22;28991;52.028;5.526;2024-02-28T13:58:14;19.50;45.80
40289;DHT22;28991;52.028;5.526;2024-02-28T14:00:40;19.60;45.80
40289;DHT22;28991;52.028;5.526;2024-02-28T14:03:07;19.70;45.80
40289;DHT22;28991;52.028;5.526;2024-02-28T14:05:33;19.80;45.80
40289;DHT22;28991;52.028;5.526;2024-02-28T14:07:59;19.80;45.80
40289;DHT22;28991;52.028;5.526;2024-02-28T14:10:25;19.70;45.70
40289;DHT22;28991;52.028;5.526;2024-02-28T14:12:51;19.80;45.80
40289;DHT22;28991;52.028;5.526;2024-02-28T14:15:20;19.70;45.90
40289;DHT22;28991;52.028;5.526;2024-02-28T14:17:46;19.80;45.90
40289;DHT22;28991;52.028;5.526;2024-02-28T14:20:11;19.70;46.30
40289;DHT22;28991;52.028;5.526;2024-02-28T14:22:37;20.10;46.10
40289;DHT22;28991;52.028;5.526;2024-02-28T14:25:13;19.90;46.00
40289;DHT22;28991;52.028;5.526;2024-02-28T14:27:44;19.70;45.90
40289;DHT22;28991;52.028;5.526;2024-02-28T14:30:10;19.60;45.80
40289;DHT22;28991;52.028;5.526;2024-02-28T14:32:37;19.70;46.00
40289;DHT22;28991;52.028;5.526;2024-02-28T14:35:06;19.70;45.90
40289;DHT22;28991;52.028;5.526;2024-02-28T14:37:33;19.70;45.90
40289;DHT22;28991;52.028;5.526;2024-02-28T14:40:00;19.70;45.90
40289;DHT22;28991;52.028;5.526;2024-02-28T14:42:26;19.70;45.90
40289;DHT22;28991;52.028;5.526;2024-02-28T14:44:52;19.60;45.90
40289;DHT22;28991;52.028;5.526;2024-02-28T14:47:19;19.60;45.90
40289;DHT22;28991;52.028;5.526;2024-02-28T14:49:45;19.60;45.70
40289;DHT22;28991;52.028;5.526;2024-02-28T14:52:11;19.60;45.80
40289;DHT22;28991;52.028;5.526;2024-02-28T14:54:37;19.50;45.80
40289;DHT22;28991;52.028;5.526;2024-02-28T14:57:04;19.50;45.90
40289;DHT22;28991;52.028;5.526;2024-02-28T14:59:30;19.60;45.90
40289;DHT22;28991;52.028;5.526;2024-02-28T15:01:55;19.60;46.00
40289;DHT22;28991;52.028;5.526;2024-02-28T15:04:21;19.60;45.80
40289;DHT22;28991;52.028;5.526;2024-02-28T15:06:47;19.70;46.00
40289;DHT22;28991;52.028;5.526;2024-02-28T15:09:13;19.50;45.90
40289;DHT22;28991;52.028;5.526;2024-02-28T15:11:39;19.40;45.90
40289;DHT22;28991;52.028;5.526;2024-02-28T15:14:05;19.50;46.20
40289;DHT22;28991;52.028;5.526;2024-02-28T15:16:30;19.50;46.30
40289;DHT22;28991;52.028;5.526;2024-02-28T15:18:56;19.40;46.30
40289;DHT22;28991;52.028;5.526;2024-02-28T15:21:22;19.40;46.60
40289;DHT22;28991;52.028;5.526;2024-02-28T15:23:48;19.40;46.60